sensor_id;sensor_type;location;lat;lon;timestamp;P1;durP1;ratioP1;P2;durP2;ratioP2
25467;SDS011;13384;24.794;110.498;2022-11-12T00:01:31;17.30;;;10.27;;
25467;SDS011;13384;24.794;110.498;2022-11-12T00:04:18;14.57;;;10.07;;
25467;SDS011;13384;24.794;110.498;2022-11-12T00:07:27;16.60;;;9.75;;
25467;SDS011;13384;24.794;110.498;2022-11-12T00:10:14;18.52;;;10.70;;
25467;SDS011;13384;24.794;110.498;2022-11-12T00:13:21;15.38;;;10.20;;
25467;SDS011;13384;24.794;110.498;2022-11-12T00:16:24;17.05;;;9.90;;
25467;SDS011;13384;24.794;110.498;2022-11-12T00:33:18;16.05;;;9.70;;
25467;SDS011;13384;24.794;110.498;2022-11-12T00:36:05;14.30;;;9.32;;
25467;SDS011;13384;24.794;110.498;2022-11-12T00:42:29;16.85;;;10.15;;
25467;SDS011;13384;24.794;110.498;2022-11-12T00:45:38;15.27;;;10.70;;
25467;SDS011;13384;24.794;110.498;2022-11-12T00:48:50;15.00;;;9.93;;
25467;SDS011;13384;24.794;110.498;2022-11-12T01:02:13;29.92;;;11.50;;
25467;SDS011;13384;24.794;110.498;2022-11-12T01:04:59;20.98;;;11.02;;
25467;SDS011;13384;24.794;110.498;2022-11-12T01:08:08;27.98;;;12.15;;
25467;SDS011;13384;24.794;110.498;2022-11-12T01:11:03;26.80;;;11.20;;
25467;SDS011;13384;24.794;110.498;2022-11-12T01:20:40;24.85;;;12.00;;
25467;SDS011;13384;24.794;110.498;2022-11-12T01:29:54;22.67;;;11.98;;
25467;SDS011;13384;24.794;110.498;2022-11-12T01:36:49;23.27;;;12.10;;
25467;SDS011;13384;24.794;110.498;2022-11-12T01:47:03;19.98;;;11.07;;
25467;SDS011;13384;24.794;110.498;2022-11-12T02:03:19;20.50;;;12.10;;
25467;SDS011;13384;24.794;110.498;2022-11-12T02:06:23;18.13;;;12.57;;
25467;SDS011;13384;24.794;110.498;2022-11-12T02:12:54;20.73;;;11.75;;
25467;SDS011;13384;24.794;110.498;2022-11-12T02:19:27;19.35;;;11.82;;
25467;SDS011;13384;24.794;110.498;2022-11-12T02:33:06;20.30;;;11.68;;
25467;SDS011;13384;24.794;110.498;2022-11-12T02:35:52;19.45;;;11.32;;
25467;SDS011;13384;24.794;110.498;2022-11-12T02:38:39;15.20;;;11.07;;
25467;SDS011;13384;24.794;110.498;2022-11-12T02:41:26;15.48;;;10.10;;
25467;SDS011;13384;24.794;110.498;2022-11-12T02:44:35;16.38;;;10.88;;
25467;SDS011;13384;24.794;110.498;2022-11-12T02:57:22;17.88;;;12.00;;
25467;SDS011;13384;24.794;110.498;2022-11-12T03:13:19;18.17;;;11.82;;
25467;SDS011;13384;24.794;110.498;2022-11-12T03:26:49;13.55;;;10.15;;
25467;SDS011;13384;24.794;110.498;2022-11-12T03:29:36;15.68;;;10.93;;
25467;SDS011;13384;24.794;110.498;2022-11-12T03:32:23;15.65;;;10.82;;
25467;SDS011;13384;24.794;110.498;2022-11-12T03:35:10;16.30;;;11.38;;
25467;SDS011;13384;24.794;110.498;2022-11-12T03:37:57;14.85;;;10.60;;
25467;SDS011;13384;24.794;110.498;2022-11-12T03:40:44;17.35;;;11.02;;
25467;SDS011;13384;24.794;110.498;2022-11-12T03:43:31;16.58;;;11.13;;
25467;SDS011;13384;24.794;110.498;2022-11-12T03:46:17;15.48;;;10.75;;
25467;SDS011;13384;24.794;110.498;2022-11-12T03:49:04;14.65;;;10.43;;
25467;SDS011;13384;24.794;110.498;2022-11-12T03:51:51;18.77;;;10.77;;
25467;SDS011;13384;24.794;110.498;2022-11-12T03:54:38;15.68;;;11.27;;
25467;SDS011;13384;24.794;110.498;2022-11-12T03:57:25;16.65;;;10.50;;
25467;SDS011;13384;24.794;110.498;2022-11-12T04:00:27;16.15;;;10.57;;
25467;SDS011;13384;24.794;110.498;2022-11-12T04:03:16;14.63;;;10.30;;
25467;SDS011;13384;24.794;110.498;2022-11-12T04:06:06;15.80;;;10.35;;
25467;SDS011;13384;24.794;110.498;2022-11-12T04:09:13;17.88;;;10.45;;
25467;SDS011;13384;24.794;110.498;2022-11-12T04:12:02;15.70;;;10.43;;
25467;SDS011;13384;24.794;110.498;2022-11-12T04:15:11;15.75;;;10.75;;
25467;SDS011;13384;24.794;110.498;2022-11-12T04:18:01;16.58;;;10.07;;
25467;SDS011;13384;24.794;110.498;2022-11-12T04:21:10;15.27;;;10.23;;
25467;SDS011;13384;24.794;110.498;2022-11-12T04:27:50;14.85;;;9.82;;
25467;SDS011;13384;24.794;110.498;2022-11-12T04:30:39;15.27;;;10.00;;
25467;SDS011;13384;24.794;110.498;2022-11-12T04:33:28;15.02;;;10.25;;
25467;SDS011;13384;24.794;110.498;2022-11-12T04:36:17;15.18;;;9.85;;
25467;SDS011;13384;24.794;110.498;2022-11-12T04:39:06;11.32;;;8.88;;
25467;SDS011;13384;24.794;110.498;2022-11-12T04:42:15;13.10;;;9.73;;
25467;SDS011;13384;24.794;110.498;2022-11-12T04:45:23;13.20;;;9.65;;
25467;SDS011;13384;24.794;110.498;2022-11-12T04:48:12;13.57;;;9.68;;
25467;SDS011;13384;24.794;110.498;2022-11-12T04:51:03;13.80;;;9.68;;
25467;SDS011;13384;24.794;110.498;2022-11-12T04:54:15;12.40;;;9.43;;
25467;SDS011;13384;24.794;110.498;2022-11-12T04:57:05;12.85;;;9.48;;
25467;SDS011;13384;24.794;110.498;2022-11-12T05:00:14;14.45;;;9.43;;
25467;SDS011;13384;24.794;110.498;2022-11-12T05:03:03;13.55;;;10.07;;
25467;SDS011;13384;24.794;110.498;2022-11-12T05:05:52;13.43;;;9.73;;
25467;SDS011;13384;24.794;110.498;2022-11-12T05:08:48;13.15;;;9.02;;
25467;SDS011;13384;24.794;110.498;2022-11-12T05:11:37;14.60;;;9.00;;
25467;SDS011;13384;24.794;110.498;2022-11-12T05:14:26;13.27;;;9.48;;
25467;SDS011;13384;24.794;110.498;2022-11-12T05:17:16;13.95;;;9.23;;
25467;SDS011;13384;24.794;110.498;2022-11-12T05:20:05;14.38;;;9.77;;
25467;SDS011;13384;24.794;110.498;2022-11-12T05:22:56;14.32;;;9.52;;
25467;SDS011;13384;24.794;110.498;2022-11-12T05:25:52;12.90;;;8.68;;
25467;SDS011;13384;24.794;110.498;2022-11-12T05:28:41;12.45;;;8.43;;
25467;SDS011;13384;24.794;110.498;2022-11-12T05:31:29;13.35;;;8.88;;
25467;SDS011;13384;24.794;110.498;2022-11-12T05:34:19;11.05;;;8.00;;
25467;SDS011;13384;24.794;110.498;2022-11-12T05:37:09;12.27;;;9.00;;
25467;SDS011;13384;24.794;110.498;2022-11-12T05:39:59;12.30;;;8.63;;
25467;SDS011;13384;24.794;110.498;2022-11-12T05:42:48;14.73;;;9.30;;
25467;SDS011;13384;24.794;110.498;2022-11-12T05:45:40;15.45;;;8.90;;
25467;SDS011;13384;24.794;110.498;2022-11-12T05:48:30;14.73;;;8.45;;
25467;SDS011;13384;24.794;110.498;2022-11-12T05:51:19;11.27;;;8.20;;
25467;SDS011;13384;24.794;110.498;2022-11-12T05:54:08;12.27;;;8.27;;
25467;SDS011;13384;24.794;110.498;2022-11-12T05:56:58;15.07;;;9.13;;
25467;SDS011;13384;24.794;110.498;2022-11-12T05:59:47;11.23;;;8.60;;
25467;SDS011;13384;24.794;110.498;2022-11-12T06:02:36;10.95;;;8.20;;
25467;SDS011;13384;24.794;110.498;2022-11-12T06:05:25;11.52;;;8.70;;
25467;SDS011;13384;24.794;110.498;2022-11-12T06:08:14;11.40;;;8.05;;
25467;SDS011;13384;24.794;110.498;2022-11-12T06:11:03;12.00;;;8.50;;
25467;SDS011;13384;24.794;110.498;2022-11-12T06:13:53;11.85;;;8.18;;
25467;SDS011;13384;24.794;110.498;2022-11-12T06:16:42;11.13;;;7.72;;
25467;SDS011;13384;24.794;110.498;2022-11-12T06:19:31;11.02;;;8.25;;
25467;SDS011;13384;24.794;110.498;2022-11-12T06:22:21;11.43;;;8.30;;
25467;SDS011;13384;24.794;110.498;2022-11-12T06:25:10;11.10;;;8.25;;
25467;SDS011;13384;24.794;110.498;2022-11-12T06:28:16;11.00;;;7.75;;
25467;SDS011;13384;24.794;110.498;2022-11-12T06:31:05;10.68;;;7.63;;
25467;SDS011;13384;24.794;110.498;2022-11-12T06:33:54;9.20;;;7.53;;
25467;SDS011;13384;24.794;110.498;2022-11-12T06:36:44;11.07;;;7.80;;
25467;SDS011;13384;24.794;110.498;2022-11-12T06:39:53;11.55;;;7.95;;
25467;SDS011;13384;24.794;110.498;2022-11-12T06:42:41;9.95;;;7.40;;
25467;SDS011;13384;24.794;110.498;2022-11-12T06:45:31;11.70;;;8.02;;
25467;SDS011;13384;24.794;110.498;2022-11-12T06:48:20;10.43;;;7.43;;
25467;SDS011;13384;24.794;110.498;2022-11-12T06:51:19;10.27;;;7.32;;
25467;SDS011;13384;24.794;110.498;2022-11-12T06:54:09;12.63;;;8.32;;
25467;SDS011;13384;24.794;110.498;2022-11-12T06:56:59;10.70;;;7.68;;
25467;SDS011;13384;24.794;110.498;2022-11-12T06:59:49;9.57;;;7.20;;
25467;SDS011;13384;24.794;110.498;2022-11-12T07:02:37;9.70;;;7.50;;
25467;SDS011;13384;24.794;110.498;2022-11-12T07:05:27;9.10;;;6.80;;
25467;SDS011;13384;24.794;110.498;2022-11-12T07:09:08;10.73;;;7.57;;
25467;SDS011;13384;24.794;110.498;2022-11-12T07:11:58;10.23;;;6.55;;
25467;SDS011;13384;24.794;110.498;2022-11-12T07:14:46;10.20;;;7.47;;
25467;SDS011;13384;24.794;110.498;2022-11-12T07:17:36;10.02;;;6.93;;
25467;SDS011;13384;24.794;110.498;2022-11-12T07:20:26;11.45;;;7.07;;
25467;SDS011;13384;24.794;110.498;2022-11-12T07:23:15;9.48;;;7.03;;
25467;SDS011;13384;24.794;110.498;2022-11-12T07:26:05;9.77;;;6.82;;
25467;SDS011;13384;24.794;110.498;2022-11-12T07:29:14;9.45;;;6.82;;
25467;SDS011;13384;24.794;110.498;2022-11-12T07:32:23;8.65;;;6.60;;
25467;SDS011;13384;24.794;110.498;2022-11-12T07:35:37;10.65;;;7.03;;
25467;SDS011;13384;24.794;110.498;2022-11-12T07:38:53;8.82;;;7.00;;
25467;SDS011;13384;24.794;110.498;2022-11-12T07:41:42;9.13;;;6.93;;
25467;SDS011;13384;24.794;110.498;2022-11-12T07:44:31;9.77;;;6.47;;
25467;SDS011;13384;24.794;110.498;2022-11-12T07:47:39;8.68;;;6.75;;
25467;SDS011;13384;24.794;110.498;2022-11-12T07:50:29;8.55;;;6.45;;
25467;SDS011;13384;24.794;110.498;2022-11-12T07:53:18;9.35;;;6.50;;
25467;SDS011;13384;24.794;110.498;2022-11-12T07:56:10;8.75;;;6.70;;
25467;SDS011;13384;24.794;110.498;2022-11-12T07:59:01;8.70;;;6.38;;
25467;SDS011;13384;24.794;110.498;2022-11-12T08:01:50;9.73;;;6.20;;
25467;SDS011;13384;24.794;110.498;2022-11-12T08:04:42;7.90;;;6.28;;
25467;SDS011;13384;24.794;110.498;2022-11-12T08:07:31;8.93;;;6.50;;
25467;SDS011;13384;24.794;110.498;2022-11-12T08:10:20;8.75;;;6.28;;
25467;SDS011;13384;24.794;110.498;2022-11-12T08:13:09;7.30;;;6.20;;
25467;SDS011;13384;24.794;110.498;2022-11-12T08:15:59;9.07;;;6.32;;
25467;SDS011;13384;24.794;110.498;2022-11-12T08:19:01;10.80;;;6.72;;
25467;SDS011;13384;24.794;110.498;2022-11-12T08:21:50;8.02;;;6.20;;
25467;SDS011;13384;24.794;110.498;2022-11-12T08:24:40;8.93;;;6.30;;
25467;SDS011;13384;24.794;110.498;2022-11-12T08:27:29;6.80;;;5.63;;
25467;SDS011;13384;24.794;110.498;2022-11-12T08:30:18;8.57;;;6.13;;
25467;SDS011;13384;24.794;110.498;2022-11-12T08:33:28;7.65;;;5.68;;
25467;SDS011;13384;24.794;110.498;2022-11-12T08:36:18;7.80;;;6.40;;
25467;SDS011;13384;24.794;110.498;2022-11-12T08:39:07;8.20;;;5.95;;
25467;SDS011;13384;24.794;110.498;2022-11-12T08:41:56;7.10;;;5.50;;
25467;SDS011;13384;24.794;110.498;2022-11-12T08:44:45;7.63;;;5.93;;
25467;SDS011;13384;24.794;110.498;2022-11-12T08:48:04;8.35;;;6.22;;
25467;SDS011;13384;24.794;110.498;2022-11-12T08:50:54;7.05;;;5.82;;
25467;SDS011;13384;24.794;110.498;2022-11-12T08:53:44;6.30;;;5.05;;
25467;SDS011;13384;24.794;110.498;2022-11-12T08:56:34;8.15;;;6.18;;
25467;SDS011;13384;24.794;110.498;2022-11-12T08:59:47;7.03;;;5.75;;
25467;SDS011;13384;24.794;110.498;2022-11-12T09:02:36;7.55;;;5.95;;
25467;SDS011;13384;24.794;110.498;2022-11-12T09:05:26;8.30;;;5.40;;
25467;SDS011;13384;24.794;110.498;2022-11-12T09:08:17;7.20;;;5.40;;
25467;SDS011;13384;24.794;110.498;2022-11-12T09:11:08;6.90;;;5.28;;
25467;SDS011;13384;24.794;110.498;2022-11-12T09:14:17;8.13;;;5.95;;
25467;SDS011;13384;24.794;110.498;2022-11-12T09:17:06;9.57;;;6.10;;
25467;SDS011;13384;24.794;110.498;2022-11-12T09:19:55;8.02;;;5.65;;
25467;SDS011;13384;24.794;110.498;2022-11-12T09:22:44;7.82;;;5.50;;
25467;SDS011;13384;24.794;110.498;2022-11-12T09:25:33;8.55;;;5.70;;
25467;SDS011;13384;24.794;110.498;2022-11-12T09:28:22;7.25;;;5.63;;
25467;SDS011;13384;24.794;110.498;2022-11-12T09:31:12;10.05;;;5.88;;
25467;SDS011;13384;24.794;110.498;2022-11-12T09:34:01;8.15;;;5.70;;
25467;SDS011;13384;24.794;110.498;2022-11-12T09:36:51;8.77;;;6.05;;
25467;SDS011;13384;24.794;110.498;2022-11-12T09:39:41;14.85;;;9.05;;
25467;SDS011;13384;24.794;110.498;2022-11-12T09:42:32;14.90;;;9.90;;
25467;SDS011;13384;24.794;110.498;2022-11-12T09:45:24;15.77;;;11.55;;
25467;SDS011;13384;24.794;110.498;2022-11-12T09:48:19;17.42;;;11.77;;
25467;SDS011;13384;24.794;110.498;2022-11-12T09:54:42;15.15;;;10.43;;
25467;SDS011;13384;24.794;110.498;2022-11-12T09:57:32;14.50;;;10.88;;
25467;SDS011;13384;24.794;110.498;2022-11-12T10:00:21;13.13;;;9.13;;
25467;SDS011;13384;24.794;110.498;2022-11-12T10:03:13;12.95;;;8.55;;
25467;SDS011;13384;24.794;110.498;2022-11-12T10:06:20;14.32;;;9.63;;
25467;SDS011;13384;24.794;110.498;2022-11-12T10:09:15;11.50;;;9.07;;
25467;SDS011;13384;24.794;110.498;2022-11-12T10:25:12;17.92;;;11.75;;
25467;SDS011;13384;24.794;110.498;2022-11-12T10:28:07;15.57;;;10.48;;
25467;SDS011;13384;24.794;110.498;2022-11-12T10:31:19;16.73;;;10.82;;
25467;SDS011;13384;24.794;110.498;2022-11-12T10:43:22;14.20;;;9.57;;
25467;SDS011;13384;24.794;110.498;2022-11-12T10:46:16;14.52;;;9.55;;
25467;SDS011;13384;24.794;110.498;2022-11-12T10:49:24;16.98;;;10.30;;
25467;SDS011;13384;24.794;110.498;2022-11-12T10:52:22;15.30;;;9.65;;
25467;SDS011;13384;24.794;110.498;2022-11-12T10:55:18;16.20;;;9.52;;
25467;SDS011;13384;24.794;110.498;2022-11-12T10:58:18;14.98;;;9.45;;
25467;SDS011;13384;24.794;110.498;2022-11-12T11:01:13;16.20;;;9.55;;
25467;SDS011;13384;24.794;110.498;2022-11-12T11:04:04;13.32;;;8.55;;
25467;SDS011;13384;24.794;110.498;2022-11-12T11:07:06;15.07;;;9.48;;
25467;SDS011;13384;24.794;110.498;2022-11-12T11:10:11;12.73;;;8.70;;
25467;SDS011;13384;24.794;110.498;2022-11-12T11:16:12;15.50;;;9.73;;
25467;SDS011;13384;24.794;110.498;2022-11-12T11:19:04;12.77;;;9.23;;
25467;SDS011;13384;24.794;110.498;2022-11-12T11:21:57;15.55;;;9.07;;
25467;SDS011;13384;24.794;110.498;2022-11-12T11:25:23;12.40;;;8.85;;
25467;SDS011;13384;24.794;110.498;2022-11-12T11:37:36;13.07;;;8.27;;
25467;SDS011;13384;24.794;110.498;2022-11-12T11:40:47;11.93;;;8.57;;
25467;SDS011;13384;24.794;110.498;2022-11-12T11:50:41;14.05;;;8.85;;
25467;SDS011;13384;24.794;110.498;2022-11-12T11:57:01;12.53;;;8.37;;
25467;SDS011;13384;24.794;110.498;2022-11-12T12:03:17;15.35;;;8.65;;
25467;SDS011;13384;24.794;110.498;2022-11-12T12:06:17;12.60;;;8.40;;
25467;SDS011;13384;24.794;110.498;2022-11-12T12:09:29;11.57;;;8.43;;
25467;SDS011;13384;24.794;110.498;2022-11-12T12:16:15;12.68;;;8.77;;
25467;SDS011;13384;24.794;110.498;2022-11-12T12:22:11;11.55;;;7.88;;
25467;SDS011;13384;24.794;110.498;2022-11-12T12:25:37;13.82;;;8.15;;
25467;SDS011;13384;24.794;110.498;2022-11-12T12:31:36;11.60;;;8.10;;
25467;SDS011;13384;24.794;110.498;2022-11-12T12:34:36;10.27;;;7.35;;
25467;SDS011;13384;24.794;110.498;2022-11-12T12:40:46;12.02;;;7.80;;
25467;SDS011;13384;24.794;110.498;2022-11-12T12:44:02;11.18;;;7.82;;
25467;SDS011;13384;24.794;110.498;2022-11-12T12:46:56;13.98;;;8.75;;
25467;SDS011;13384;24.794;110.498;2022-11-12T12:52:58;11.00;;;7.57;;
25467;SDS011;13384;24.794;110.498;2022-11-12T12:55:48;10.75;;;8.27;;
25467;SDS011;13384;24.794;110.498;2022-11-12T13:01:31;13.02;;;8.75;;
25467;SDS011;13384;24.794;110.498;2022-11-12T13:07:44;13.20;;;7.82;;
25467;SDS011;13384;24.794;110.498;2022-11-12T13:13:30;11.68;;;7.80;;
25467;SDS011;13384;24.794;110.498;2022-11-12T13:25:34;13.07;;;8.18;;
25467;SDS011;13384;24.794;110.498;2022-11-12T13:28:23;13.30;;;8.45;;
25467;SDS011;13384;24.794;110.498;2022-11-12T13:31:23;10.32;;;7.88;;
25467;SDS011;13384;24.794;110.498;2022-11-12T13:34:34;12.02;;;7.65;;
25467;SDS011;13384;24.794;110.498;2022-11-12T13:37:44;12.63;;;8.40;;
25467;SDS011;13384;24.794;110.498;2022-11-12T13:41:22;11.65;;;8.02;;
25467;SDS011;13384;24.794;110.498;2022-11-12T13:44:26;12.50;;;7.60;;
25467;SDS011;13384;24.794;110.498;2022-11-12T13:47:17;12.43;;;8.68;;
25467;SDS011;13384;24.794;110.498;2022-11-12T13:50:27;11.15;;;7.18;;
25467;SDS011;13384;24.794;110.498;2022-11-12T13:53:25;10.85;;;8.20;;
25467;SDS011;13384;24.794;110.498;2022-11-12T13:56:38;13.10;;;7.97;;
25467;SDS011;13384;24.794;110.498;2022-11-12T13:59:27;10.88;;;7.80;;
25467;SDS011;13384;24.794;110.498;2022-11-12T14:05:16;12.70;;;7.97;;
25467;SDS011;13384;24.794;110.498;2022-11-12T14:14:50;8.95;;;7.03;;
25467;SDS011;13384;24.794;110.498;2022-11-12T14:18:23;11.07;;;7.53;;
25467;SDS011;13384;24.794;110.498;2022-11-12T14:24:20;10.20;;;7.10;;
25467;SDS011;13384;24.794;110.498;2022-11-12T14:30:14;12.93;;;8.47;;
25467;SDS011;13384;24.794;110.498;2022-11-12T14:33:09;8.63;;;6.53;;
25467;SDS011;13384;24.794;110.498;2022-11-12T14:36:14;12.18;;;7.68;;
25467;SDS011;13384;24.794;110.498;2022-11-12T14:39:05;11.57;;;7.53;;
25467;SDS011;13384;24.794;110.498;2022-11-12T14:41:57;10.20;;;7.43;;
25467;SDS011;13384;24.794;110.498;2022-11-12T14:44:47;10.23;;;7.68;;
25467;SDS011;13384;24.794;110.498;2022-11-12T14:47:36;11.95;;;7.93;;
25467;SDS011;13384;24.794;110.498;2022-11-12T14:50:28;11.93;;;7.57;;
25467;SDS011;13384;24.794;110.498;2022-11-12T14:53:34;10.88;;;7.35;;
25467;SDS011;13384;24.794;110.498;2022-11-12T14:56:30;12.20;;;7.88;;
25467;SDS011;13384;24.794;110.498;2022-11-12T14:59:34;11.57;;;7.13;;
25467;SDS011;13384;24.794;110.498;2022-11-12T15:02:24;9.85;;;7.20;;
25467;SDS011;13384;24.794;110.498;2022-11-12T15:05:52;15.27;;;7.60;;
25467;SDS011;13384;24.794;110.498;2022-11-12T15:08:41;11.20;;;6.82;;
25467;SDS011;13384;24.794;110.498;2022-11-12T15:11:32;12.63;;;8.43;;
25467;SDS011;13384;24.794;110.498;2022-11-12T15:14:35;12.48;;;7.70;;
25467;SDS011;13384;24.794;110.498;2022-11-12T15:17:29;9.35;;;7.05;;
25467;SDS011;13384;24.794;110.498;2022-11-12T15:20:21;12.02;;;7.47;;
25467;SDS011;13384;24.794;110.498;2022-11-12T15:23:16;12.57;;;8.23;;
25467;SDS011;13384;24.794;110.498;2022-11-12T15:26:10;12.20;;;7.50;;
25467;SDS011;13384;24.794;110.498;2022-11-12T15:35:04;12.70;;;7.78;;
25467;SDS011;13384;24.794;110.498;2022-11-12T15:38:09;8.93;;;6.68;;
25467;SDS011;13384;24.794;110.498;2022-11-12T15:41:24;11.77;;;7.57;;
25467;SDS011;13384;24.794;110.498;2022-11-12T15:44:17;10.70;;;7.47;;
25467;SDS011;13384;24.794;110.498;2022-11-12T15:47:19;10.40;;;6.97;;
25467;SDS011;13384;24.794;110.498;2022-11-12T15:53:05;9.85;;;6.93;;
25467;SDS011;13384;24.794;110.498;2022-11-12T15:55:54;11.90;;;7.72;;
25467;SDS011;13384;24.794;110.498;2022-11-12T15:58:44;10.05;;;7.30;;
25467;SDS011;13384;24.794;110.498;2022-11-12T16:01:33;9.73;;;6.72;;
25467;SDS011;13384;24.794;110.498;2022-11-12T16:04:24;11.20;;;7.78;;
25467;SDS011;13384;24.794;110.498;2022-11-12T16:07:13;15.38;;;9.10;;
25467;SDS011;13384;24.794;110.498;2022-11-12T16:10:02;18.52;;;10.38;;
25467;SDS011;13384;24.794;110.498;2022-11-12T16:12:51;35.05;;;20.33;;
25467;SDS011;13384;24.794;110.498;2022-11-12T16:15:48;35.60;;;20.88;;
25467;SDS011;13384;24.794;110.498;2022-11-12T16:18:38;36.10;;;22.05;;
25467;SDS011;13384;24.794;110.498;2022-11-12T16:21:28;37.97;;;23.20;;
25467;SDS011;13384;24.794;110.498;2022-11-12T16:24:17;21.73;;;13.75;;
25467;SDS011;13384;24.794;110.498;2022-11-12T16:27:12;20.88;;;12.30;;
25467;SDS011;13384;24.794;110.498;2022-11-12T16:30:03;19.17;;;11.55;;
25467;SDS011;13384;24.794;110.498;2022-11-12T16:32:57;17.27;;;11.05;;
25467;SDS011;13384;24.794;110.498;2022-11-12T16:35:47;15.03;;;10.20;;
25467;SDS011;13384;24.794;110.498;2022-11-12T16:38:36;19.63;;;12.27;;
25467;SDS011;13384;24.794;110.498;2022-11-12T16:41:25;20.05;;;11.75;;
25467;SDS011;13384;24.794;110.498;2022-11-12T16:44:14;15.40;;;10.35;;
25467;SDS011;13384;24.794;110.498;2022-11-12T16:47:04;16.90;;;10.27;;
25467;SDS011;13384;24.794;110.498;2022-11-12T16:49:53;17.02;;;10.88;;
25467;SDS011;13384;24.794;110.498;2022-11-12T16:52:43;19.33;;;12.50;;
25467;SDS011;13384;24.794;110.498;2022-11-12T16:55:55;16.30;;;11.27;;
25467;SDS011;13384;24.794;110.498;2022-11-12T16:58:45;17.98;;;10.65;;
25467;SDS011;13384;24.794;110.498;2022-11-12T17:01:35;16.60;;;11.15;;
25467;SDS011;13384;24.794;110.498;2022-11-12T17:04:24;13.85;;;10.05;;
25467;SDS011;13384;24.794;110.498;2022-11-12T17:07:13;13.80;;;9.50;;
25467;SDS011;13384;24.794;110.498;2022-11-12T17:10:03;16.45;;;10.25;;
25467;SDS011;13384;24.794;110.498;2022-11-12T17:12:52;15.00;;;9.75;;
25467;SDS011;13384;24.794;110.498;2022-11-12T17:15:41;17.60;;;9.70;;
25467;SDS011;13384;24.794;110.498;2022-11-12T17:18:30;15.73;;;9.68;;
25467;SDS011;13384;24.794;110.498;2022-11-12T17:21:19;17.17;;;9.75;;
25467;SDS011;13384;24.794;110.498;2022-11-12T17:24:09;14.38;;;9.30;;
25467;SDS011;13384;24.794;110.498;2022-11-12T17:27:02;15.95;;;9.13;;
25467;SDS011;13384;24.794;110.498;2022-11-12T17:29:51;13.32;;;9.10;;
25467;SDS011;13384;24.794;110.498;2022-11-12T17:32:40;12.90;;;8.68;;
25467;SDS011;13384;24.794;110.498;2022-11-12T17:35:31;12.85;;;9.02;;
25467;SDS011;13384;24.794;110.498;2022-11-12T17:38:20;13.75;;;9.38;;
25467;SDS011;13384;24.794;110.498;2022-11-12T17:41:09;13.13;;;8.70;;
25467;SDS011;13384;24.794;110.498;2022-11-12T17:43:59;12.55;;;8.52;;
25467;SDS011;13384;24.794;110.498;2022-11-12T17:46:49;11.75;;;7.78;;
25467;SDS011;13384;24.794;110.498;2022-11-12T17:49:38;12.15;;;8.10;;
25467;SDS011;13384;24.794;110.498;2022-11-12T17:52:28;12.27;;;8.13;;
25467;SDS011;13384;24.794;110.498;2022-11-12T17:55:18;12.00;;;8.00;;
25467;SDS011;13384;24.794;110.498;2022-11-12T17:58:08;15.35;;;9.35;;
25467;SDS011;13384;24.794;110.498;2022-11-12T18:01:05;13.65;;;8.80;;
25467;SDS011;13384;24.794;110.498;2022-11-12T18:03:56;13.85;;;9.02;;
25467;SDS011;13384;24.794;110.498;2022-11-12T18:06:46;13.35;;;8.63;;
25467;SDS011;13384;24.794;110.498;2022-11-12T18:09:35;12.82;;;8.57;;
25467;SDS011;13384;24.794;110.498;2022-11-12T18:12:24;12.02;;;8.55;;
25467;SDS011;13384;24.794;110.498;2022-11-12T18:15:21;12.80;;;7.88;;
25467;SDS011;13384;24.794;110.498;2022-11-12T18:18:10;13.15;;;8.90;;
25467;SDS011;13384;24.794;110.498;2022-11-12T18:20:59;12.38;;;8.73;;
25467;SDS011;13384;24.794;110.498;2022-11-12T18:23:48;12.77;;;8.07;;
25467;SDS011;13384;24.794;110.498;2022-11-12T18:26:37;13.68;;;8.55;;
25467;SDS011;13384;24.794;110.498;2022-11-12T18:29:39;11.40;;;7.53;;
25467;SDS011;13384;24.794;110.498;2022-11-12T18:32:28;12.02;;;8.35;;
25467;SDS011;13384;24.794;110.498;2022-11-12T18:35:18;11.45;;;8.30;;
25467;SDS011;13384;24.794;110.498;2022-11-12T18:38:13;11.80;;;7.95;;
25467;SDS011;13384;24.794;110.498;2022-11-12T18:41:06;14.77;;;7.80;;
25467;SDS011;13384;24.794;110.498;2022-11-12T18:43:56;10.60;;;7.75;;
25467;SDS011;13384;24.794;110.498;2022-11-12T18:46:46;12.95;;;8.68;;
25467;SDS011;13384;24.794;110.498;2022-11-12T18:49:35;12.23;;;8.40;;
25467;SDS011;13384;24.794;110.498;2022-11-12T18:52:24;11.05;;;7.63;;
25467;SDS011;13384;24.794;110.498;2022-11-12T18:55:13;12.05;;;8.80;;
25467;SDS011;13384;24.794;110.498;2022-11-12T18:58:02;11.77;;;8.52;;
25467;SDS011;13384;24.794;110.498;2022-11-12T19:00:51;10.98;;;6.97;;
25467;SDS011;13384;24.794;110.498;2022-11-12T19:03:40;11.88;;;7.28;;
25467;SDS011;13384;24.794;110.498;2022-11-12T19:06:29;10.73;;;7.70;;
25467;SDS011;13384;24.794;110.498;2022-11-12T19:09:19;12.90;;;7.90;;
25467;SDS011;13384;24.794;110.498;2022-11-12T19:12:08;11.88;;;7.88;;
25467;SDS011;13384;24.794;110.498;2022-11-12T19:14:57;10.05;;;7.55;;
25467;SDS011;13384;24.794;110.498;2022-11-12T19:17:45;11.25;;;7.43;;
25467;SDS011;13384;24.794;110.498;2022-11-12T19:20:34;10.45;;;7.32;;
25467;SDS011;13384;24.794;110.498;2022-11-12T19:23:23;10.70;;;7.82;;
25467;SDS011;13384;24.794;110.498;2022-11-12T19:26:15;10.23;;;7.40;;
25467;SDS011;13384;24.794;110.498;2022-11-12T19:29:04;10.30;;;7.53;;
25467;SDS011;13384;24.794;110.498;2022-11-12T19:31:53;11.27;;;7.55;;
25467;SDS011;13384;24.794;110.498;2022-11-12T19:35:08;11.82;;;8.00;;
25467;SDS011;13384;24.794;110.498;2022-11-12T19:37:57;12.40;;;7.63;;
25467;SDS011;13384;24.794;110.498;2022-11-12T19:40:46;9.73;;;6.82;;
25467;SDS011;13384;24.794;110.498;2022-11-12T19:43:35;10.50;;;7.03;;
25467;SDS011;13384;24.794;110.498;2022-11-12T19:46:27;12.43;;;7.80;;
25467;SDS011;13384;24.794;110.498;2022-11-12T19:49:17;9.15;;;7.20;;
25467;SDS011;13384;24.794;110.498;2022-11-12T19:52:06;10.38;;;7.18;;
25467;SDS011;13384;24.794;110.498;2022-11-12T19:54:56;10.15;;;7.25;;
25467;SDS011;13384;24.794;110.498;2022-11-12T19:57:45;10.00;;;7.03;;
25467;SDS011;13384;24.794;110.498;2022-11-12T20:00:34;8.43;;;6.47;;
25467;SDS011;13384;24.794;110.498;2022-11-12T20:03:23;8.38;;;6.60;;
25467;SDS011;13384;24.794;110.498;2022-11-12T20:06:14;10.88;;;7.55;;
25467;SDS011;13384;24.794;110.498;2022-11-12T20:09:05;9.55;;;6.95;;
25467;SDS011;13384;24.794;110.498;2022-11-12T20:11:54;11.30;;;7.95;;
25467;SDS011;13384;24.794;110.498;2022-11-12T20:14:44;10.50;;;7.03;;
25467;SDS011;13384;24.794;110.498;2022-11-12T20:17:34;10.90;;;7.43;;
25467;SDS011;13384;24.794;110.498;2022-11-12T20:20:26;11.93;;;7.82;;
25467;SDS011;13384;24.794;110.498;2022-11-12T20:23:29;11.88;;;7.80;;
25467;SDS011;13384;24.794;110.498;2022-11-12T20:26:20;10.02;;;7.00;;
25467;SDS011;13384;24.794;110.498;2022-11-12T20:29:08;10.80;;;6.88;;
25467;SDS011;13384;24.794;110.498;2022-11-12T20:31:57;10.50;;;7.40;;
25467;SDS011;13384;24.794;110.498;2022-11-12T20:34:45;11.07;;;6.85;;